Terminal Aerodrome Forecast
Issued by NWS

Home | Current Version | Previous Version | Text Only | Print | Product List | Glossary On
Versions: 1 2 3 4 5 6 7 8 9 10 11 12
000
FTAK31 PAFA 282335
TAFAOT
TAF
PAOT 282335Z 2900/2924 30014KT P6SM VCSH BKN035
     FM290300 30018KT P6SM SCT025 BKN035 BKN050
     FM290900 32008KT P6SM SCT025 BKN050=

USA.gov is the U.S. government's official web portal to all federal, state and local government web resources and services.